Time;durP1;ratioP1;P1;durP2;ratioP2;P2;SDS_P1;SDS_P2;PMS_P1;PMS_P2;Temp;Humidity;BMP_temperature;BMP_pressure;BME280_temperature;BME280_humidity;BME280_pressure;Samples;Min_cycle;Max_cycle;Signal;HPM_P1;HPM_P2
2023/07/18 00:01:28;;;;;;;;;;;;;;;20.74;41.66;98483.56;5015144;28;19926;-60
2023/07/18 00:04:19;;;;;;;;;;;;;;;20.71;42.51;98482.31;5022419;28;20571;-60
2023/07/18 00:07:07;;;;;;;;;;;;;;;20.61;44.30;98493.94;5022641;28;19940;-61
2023/07/18 00:09:55;;;;;;;;;;;;;;;20.48;44.95;98492.50;5019854;28;19925;-60
2023/07/18 00:12:47;;;;;;;;;;;;;;;20.28;45.36;98495.22;5017632;28;19932;-62
2023/07/18 00:15:36;;;;;;;;;;;;;;;20.18;45.57;98494.97;5026708;28;19929;-59
2023/07/18 00:18:24;;;;;;;;;;;;;;;19.95;46.03;98497.63;5024597;28;19929;-61
2023/07/18 00:21:15;;;;;;;;;;;;;;;19.48;47.02;98501.19;5027343;28;20320;-62
2023/07/18 00:24:04;;;;;;;;;;;;;;;19.63;47.10;98505.94;5021221;28;20451;-63
2023/07/18 00:26:54;;;;;;;;;;;;;;;19.60;47.39;98517.66;5023587;28;19936;-61
2023/07/18 00:29:44;;;;;;;;;;;;;;;19.63;47.36;98517.75;5025873;28;20453;-61
2023/07/18 00:32:32;;;;;;;;;;;;;;;19.31;47.02;98519.66;5021428;28;19929;-59
2023/07/18 00:35:24;;;;;;;;;;;;;;;19.03;46.49;98522.47;5024758;28;20565;-62
2023/07/18 00:38:12;;;;;;;;;;;;;;;19.13;46.46;98521.16;5027007;28;19932;-68
2023/07/18 00:41:01;;;;;;;;;;;;;;;19.07;48.22;98519.81;5034181;28;19933;-61
2023/07/18 00:43:49;;;;;;;;;;;;;;;18.89;49.01;98518.53;5023404;28;20461;-67
2023/07/18 00:46:38;;;;;;;;;;;;;;;19.27;48.54;98517.97;5022908;28;20378;-59
2023/07/18 00:49:28;;;;;;;;;;;;;;;19.38;47.97;98522.59;5025466;28;19932;-61
2023/07/18 00:52:16;;;;;;;;;;;;;;;19.45;47.95;98516.50;5026484;28;19925;-58
2023/07/18 00:55:05;;;;;;;;;;;;;;;19.51;47.86;98515.06;5025702;28;20546;-62
2023/07/18 00:57:53;;;;;;;;;;;;;;;19.31;48.30;98518.88;5023091;28;19956;-60
2023/07/18 01:00:41;;;;;;;;;;;;;;;19.42;47.77;98519.94;5021145;28;19926;-61
2023/07/18 01:03:34;;;;;;;;;;;;;;;19.42;46.71;98517.19;5021801;28;19974;-63
2023/07/18 01:06:24;;;;;;;;;;;;;;;19.39;47.04;98515.16;5035171;28;20507;-62
2023/07/18 01:09:14;;;;;;;;;;;;;;;18.86;47.03;98520.03;5016937;28;19929;-61
2023/07/18 01:12:03;;;;;;;;;;;;;;;18.67;47.57;98520.66;5023435;28;19944;-68
2023/07/18 01:14:51;;;;;;;;;;;;;;;18.49;48.09;98513.84;5020468;28;19936;-61
2023/07/18 01:17:43;;;;;;;;;;;;;;;18.55;48.13;98516.00;5023653;28;20488;-63
2023/07/18 01:20:33;;;;;;;;;;;;;;;18.81;47.91;98518.34;5032952;28;20058;-60
2023/07/18 01:23:25;;;;;;;;;;;;;;;18.57;48.47;98518.38;5023386;28;19939;-60
2023/07/18 01:26:13;;;;;;;;;;;;;;;18.44;49.01;98508.59;5028740;28;19936;-60
2023/07/18 01:29:02;;;;;;;;;;;;;;;18.56;48.94;98508.53;5016314;28;19940;-64
2023/07/18 01:31:51;;;;;;;;;;;;;;;18.66;48.71;98505.28;5023475;28;19928;-63
2023/07/18 01:34:40;;;;;;;;;;;;;;;18.38;49.46;98509.97;5021510;28;19944;-59
2023/07/18 01:37:28;;;;;;;;;;;;;;;18.24;49.94;98513.91;5023447;28;19932;-60
2023/07/18 01:40:20;;;;;;;;;;;;;;;18.47;49.71;98508.66;5018416;28;19932;-64
2023/07/18 01:43:08;;;;;;;;;;;;;;;18.19;50.25;98516.09;5023915;28;19929;-62
2023/07/18 01:45:58;;;;;;;;;;;;;;;18.23;50.07;98520.53;5022746;28;19925;-60
2023/07/18 01:48:49;;;;;;;;;;;;;;;18.11;50.39;98514.25;5017028;28;19932;-64
2023/07/18 01:51:37;;;;;;;;;;;;;;;18.06;50.87;98518.06;5011210;28;19932;-61
2023/07/18 01:54:27;;;;;;;;;;;;;;;18.04;50.66;98517.59;5029654;28;19931;-61
2023/07/18 01:57:16;;;;;;;;;;;;;;;18.24;50.32;98513.91;5021803;28;19936;-63
2023/07/18 02:00:05;;;;;;;;;;;;;;;17.97;50.79;98523.69;5020127;28;19966;-62
2023/07/18 02:03:02;;;;;;;;;;;;;;;18.38;50.00;98520.97;5030972;28;19933;-61
2023/07/18 02:05:51;;;;;;;;;;;;;;;18.01;50.87;98521.84;5023843;28;19929;-59
2023/07/18 02:08:39;;;;;;;;;;;;;;;18.14;50.58;98519.88;5021439;28;19956;-62
2023/07/18 02:11:27;;;;;;;;;;;;;;;17.98;50.77;98529.97;5022907;28;19925;-61
2023/07/18 02:14:19;;;;;;;;;;;;;;;17.72;51.38;98524.78;5012866;28;19984;-65
2023/07/18 02:17:08;;;;;;;;;;;;;;;18.10;50.57;98521.69;5023945;28;20023;-63
2023/07/18 02:19:57;;;;;;;;;;;;;;;18.28;50.11;98527.75;5023292;28;20622;-62
2023/07/18 02:22:48;;;;;;;;;;;;;;;17.96;50.85;98522.06;5022469;28;20709;-62
2023/07/18 02:25:36;;;;;;;;;;;;;;;17.93;50.91;98521.94;5022596;28;20402;-59
2023/07/18 02:28:25;;;;;;;;;;;;;;;17.86;50.81;98513.50;5019110;28;19925;-59
2023/07/18 02:31:15;;;;;;;;;;;;;;;17.79;51.32;98517.63;5024589;28;19932;-60
2023/07/18 02:34:04;;;;;;;;;;;;;;;17.86;51.00;98511.53;5028081;28;19968;-68
2023/07/18 02:36:52;;;;;;;;;;;;;;;17.94;51.18;98518.06;5015711;28;20079;-64
2023/07/18 02:39:42;;;;;;;;;;;;;;;17.40;52.44;98513.53;5025993;28;20390;-61
2023/07/18 02:42:33;;;;;;;;;;;;;;;17.25;52.53;98517.75;5022581;28;20450;-60
2023/07/18 02:45:21;;;;;;;;;;;;;;;17.01;53.35;98515.75;5023960;28;20443;-65
2023/07/18 02:48:11;;;;;;;;;;;;;;;17.35;52.68;98518.47;5020285;28;19925;-61
2023/07/18 02:51:01;;;;;;;;;;;;;;;17.12;53.07;98518.88;5023057;28;19939;-59
2023/07/18 02:53:50;;;;;;;;;;;;;;;17.42;52.38;98513.22;5024671;28;20043;-60
2023/07/18 02:56:38;;;;;;;;;;;;;;;17.02;53.26;98520.09;5035168;28;19983;-64
2023/07/18 02:59:26;;;;;;;;;;;;;;;16.96;53.53;98524.22;5039410;28;20586;-60
2023/07/18 03:02:15;;;;;;;;;;;;;;;17.15;53.42;98526.44;5019695;28;19933;-60
2023/07/18 03:05:07;;;;;;;;;;;;;;;16.90;53.71;98522.03;5015965;28;19925;-66
2023/07/18 03:07:55;;;;;;;;;;;;;;;17.06;53.25;98528.47;5022260;28;20370;-64
2023/07/18 03:10:43;;;;;;;;;;;;;;;17.36;52.31;98525.56;5039207;28;20058;-61
2023/07/18 03:13:31;;;;;;;;;;;;;;;17.00;53.32;98529.84;5020671;28;19994;-61
2023/07/18 03:16:19;;;;;;;;;;;;;;;17.29;52.72;98531.59;5019349;28;19929;-62
2023/07/18 03:19:09;;;;;;;;;;;;;;;17.50;52.14;98528.78;5019881;28;19926;-62
2023/07/18 03:21:59;;;;;;;;;;;;;;;17.63;52.22;98533.16;5021219;28;19948;-63
2023/07/18 03:24:47;;;;;;;;;;;;;;;17.41;53.44;98539.06;5021901;28;20306;-60
2023/07/18 03:27:36;;;;;;;;;;;;;;;17.43;53.55;98542.28;5021847;28;19940;-62
2023/07/18 03:30:25;;;;;;;;;;;;;;;17.43;53.70;98547.78;5023547;28;19937;-62
2023/07/18 03:33:15;;;;;;;;;;;;;;;17.40;53.62;98554.75;5019456;28;19936;-62
2023/07/18 03:36:04;;;;;;;;;;;;;;;17.29;53.70;98551.63;5019878;28;19924;-69
2023/07/18 03:38:54;;;;;;;;;;;;;;;17.33;53.69;98549.03;5020902;28;19925;-63
2023/07/18 03:41:45;;;;;;;;;;;;;;;17.24;53.66;98546.34;5022625;28;20442;-63
2023/07/18 03:44:33;;;;;;;;;;;;;;;17.36;53.46;98548.31;5021945;28;19929;-61
2023/07/18 03:47:22;;;;;;;;;;;;;;;17.34;53.18;98544.31;5019242;28;20327;-62
2023/07/18 03:50:11;;;;;;;;;;;;;;;17.27;53.53;98553.13;5026947;28;19925;-60
2023/07/18 03:52:59;;;;;;;;;;;;;;;17.27;53.69;98551.19;5025353;28;19932;-61
2023/07/18 03:55:49;;;;;;;;;;;;;;;17.18;53.62;98544.97;5040470;28;19929;-65
2023/07/18 03:58:38;;;;;;;;;;;;;;;17.14;54.12;98541.28;5022318;28;19940;-63
2023/07/18 04:01:27;;;;;;;;;;;;;;;17.21;53.91;98551.75;5024000;28;19933;-63
2023/07/18 04:04:15;;;;;;;;;;;;;;;17.17;53.97;98546.13;5029259;28;19925;-61
2023/07/18 04:07:06;;;;;;;;;;;;;;;16.95;54.39;98539.06;5025146;28;19933;-63
2023/07/18 04:09:54;;;;;;;;;;;;;;;17.14;54.10;98552.28;5027360;28;19925;-62
2023/07/18 04:12:44;;;;;;;;;;;;;;;17.01;54.61;98542.41;5020837;28;20003;-62
2023/07/18 04:15:32;;;;;;;;;;;;;;;17.04;54.15;98541.72;5022297;28;20618;-64
2023/07/18 04:18:21;;;;;;;;;;;;;;;17.08;54.40;98542.66;5024623;28;20064;-60
2023/07/18 04:21:09;;;;;;;;;;;;;;;17.17;54.30;98535.13;5028005;28;19925;-61
2023/07/18 04:23:57;;;;;;;;;;;;;;;17.16;54.19;98543.72;5022218;28;19929;-62
2023/07/18 04:26:47;;;;;;;;;;;;;;;17.26;53.73;98543.28;5013673;28;19936;-62
2023/07/18 04:29:36;;;;;;;;;;;;;;;17.05;54.05;98545.28;5027859;28;20561;-60
2023/07/18 04:32:25;;;;;;;;;;;;;;;17.13;53.97;98539.69;5021754;28;19929;-61
2023/07/18 04:35:13;;;;;;;;;;;;;;;17.00;54.75;98540.81;5022491;28;20422;-59
2023/07/18 04:38:01;;;;;;;;;;;;;;;16.99;55.03;98539.19;5027438;28;19929;-62
2023/07/18 04:40:49;;;;;;;;;;;;;;;16.96;55.38;98545.38;5027797;28;19991;-61
2023/07/18 04:43:38;;;;;;;;;;;;;;;16.99;54.96;98537.28;5028343;28;20079;-59
2023/07/18 04:46:28;;;;;;;;;;;;;;;16.88;54.82;98538.00;5026984;28;20422;-67
2023/07/18 04:49:17;;;;;;;;;;;;;;;17.07;54.05;98538.31;5022048;28;20420;-65
2023/07/18 04:52:07;;;;;;;;;;;;;;;16.99;54.37;98539.19;5021781;28;19988;-66
2023/07/18 04:54:55;;;;;;;;;;;;;;;16.92;54.44;98530.72;5021986;28;20326;-61
2023/07/18 04:57:43;;;;;;;;;;;;;;;16.94;54.88;98531.19;5020804;28;20528;-60
2023/07/18 05:00:31;;;;;;;;;;;;;;;16.92;54.39;98533.44;5022061;28;21105;-61
2023/07/18 05:03:21;;;;;;;;;;;;;;;16.88;54.70;98527.03;5018756;28;20387;-62
2023/07/18 05:06:09;;;;;;;;;;;;;;;16.95;54.43;98533.59;5023332;28;20445;-61
2023/07/18 05:08:57;;;;;;;;;;;;;;;17.06;53.75;98524.94;5019205;28;20341;-63
2023/07/18 05:11:46;;;;;;;;;;;;;;;16.31;55.36;98525.72;5016020;28;20379;-62
2023/07/18 05:14:34;;;;;;;;;;;;;;;16.62;54.84;98532.72;5022820;28;20357;-65
2023/07/18 05:17:23;;;;;;;;;;;;;;;16.67;54.72;98519.63;5016804;28;20351;-61
2023/07/18 05:20:12;;;;;;;;;;;;;;;16.74;54.08;98517.16;5018804;28;19925;-63
2023/07/18 05:23:04;;;;;;;;;;;;;;;16.90;54.00;98527.50;5016438;28;19979;-66
2023/07/18 05:25:53;;;;;;;;;;;;;;;17.12;53.54;98527.13;5018119;28;19983;-63
2023/07/18 05:28:41;;;;;;;;;;;;;;;17.28;53.14;98521.78;5034313;28;20287;-61
2023/07/18 05:31:29;;;;;;;;;;;;;;;17.43;53.55;98517.56;5027688;28;19924;-61
2023/07/18 05:34:17;;;;;;;;;;;;;;;17.54;52.96;98516.78;5023681;28;19936;-62
2023/07/18 05:37:07;;;;;;;;;;;;;;;17.75;53.12;98515.91;5028853;28;20294;-63
2023/07/18 05:39:55;;;;;;;;;;;;;;;17.93;53.08;98519.22;5027627;28;19936;-62
2023/07/18 05:42:44;;;;;;;;;;;;;;;17.95;52.19;98520.47;5027154;28;19925;-61
2023/07/18 05:45:32;;;;;;;;;;;;;;;18.06;52.26;98520.81;5026148;28;19925;-60
2023/07/18 05:48:21;;;;;;;;;;;;;;;17.92;52.20;98520.34;5024590;28;20413;-61
2023/07/18 05:51:09;;;;;;;;;;;;;;;17.91;51.38;98516.81;5025893;28;19932;-63
2023/07/18 05:53:59;;;;;;;;;;;;;;;17.98;51.48;98518.97;5026397;28;19958;-65
2023/07/18 05:56:47;;;;;;;;;;;;;;;18.17;51.32;98518.38;5026504;28;19932;-62
2023/07/18 05:59:35;;;;;;;;;;;;;;;18.18;51.59;98518.03;5022823;28;19933;-61
2023/07/18 06:02:24;;;;;;;;;;;;;;;18.23;50.89;98506.78;5018335;28;19936;-62
2023/07/18 06:05:12;;;;;;;;;;;;;;;18.10;50.97;98515.41;5017459;28;19925;-62
2023/07/18 06:08:00;;;;;;;;;;;;;;;18.08;51.28;98513.00;5020788;28;20784;-62
2023/07/18 06:10:56;;;;;;;;;;;;;;;18.23;51.96;98512.31;5018074;28;19929;-62
2023/07/18 06:13:44;;;;;;;;;;;;;;;18.28;50.31;98497.50;5010583;28;19925;-61
2023/07/18 06:16:33;;;;;;;;;;;;;;;18.38;50.52;98499.78;5019468;28;19936;-60
2023/07/18 06:19:21;;;;;;;;;;;;;;;17.77;51.64;98502.59;5021212;28;19932;-59
2023/07/18 06:22:13;;;;;;;;;;;;;;;18.15;51.59;98496.72;5023257;28;19936;-61
2023/07/18 06:25:01;;;;;;;;;;;;;;;18.27;51.13;98496.72;5014570;28;19940;-60
2023/07/18 06:27:51;;;;;;;;;;;;;;;18.17;50.48;98510.94;5015476;28;19944;-60
2023/07/18 06:30:39;;;;;;;;;;;;;;;18.47;50.27;98499.63;5018608;28;20632;-61
2023/07/18 06:33:27;;;;;;;;;;;;;;;18.46;50.29;98492.50;5017919;28;19929;-61
2023/07/18 06:36:16;;;;;;;;;;;;;;;18.57;49.95;98496.38;5020191;28;19932;-59
2023/07/18 06:39:05;;;;;;;;;;;;;;;18.82;49.75;98494.34;5019376;28;19932;-63
2023/07/18 06:41:54;;;;;;;;;;;;;;;18.92;49.70;98485.59;5021348;28;20187;-63
2023/07/18 06:44:46;;;;;;;;;;;;;;;18.91;49.13;98485.94;5021167;28;19932;-62
2023/07/18 06:47:36;;;;;;;;;;;;;;;18.99;48.86;98485.78;5019203;28;20303;-62
2023/07/18 06:50:24;;;;;;;;;;;;;;;18.91;48.79;98483.16;5022623;28;19960;-60
2023/07/18 06:53:13;;;;;;;;;;;;;;;18.90;48.06;98476.06;5024500;28;20407;-60
2023/07/18 06:56:08;;;;;;;;;;;;;;;19.12;48.29;98472.72;5012626;28;20405;-62
2023/07/18 06:58:56;;;;;;;;;;;;;;;19.18;47.87;98474.09;5021044;28;19925;-64
2023/07/18 07:01:45;;;;;;;;;;;;;;;19.31;47.64;98472.81;5020256;28;20293;-61
2023/07/18 07:04:36;;;;;;;;;;;;;;;19.33;46.35;98470.53;5018815;28;19936;-59
2023/07/18 07:07:25;;;;;;;;;;;;;;;19.57;46.58;98472.28;5025097;28;19929;-60
2023/07/18 07:10:14;;;;;;;;;;;;;;;19.74;46.24;98464.84;5019806;28;19941;-61
2023/07/18 07:13:03;;;;;;;;;;;;;;;19.74;46.38;98464.84;5021948;28;19933;-59
2023/07/18 07:15:51;;;;;;;;;;;;;;;19.85;45.90;98455.66;5018297;28;19925;-60
2023/07/18 07:18:41;;;;;;;;;;;;;;;20.11;45.29;98445.97;5016518;28;19933;-65
2023/07/18 07:21:29;;;;;;;;;;;;;;;20.12;45.28;98448.34;5021423;28;19944;-64
2023/07/18 07:24:17;;;;;;;;;;;;;;;20.32;44.99;98451.16;5018290;28;19937;-60
2023/07/18 07:27:07;;;;;;;;;;;;;;;20.08;45.07;98447.50;5027838;28;19932;-59
2023/07/18 07:29:56;;;;;;;;;;;;;;;19.98;45.39;98442.56;5026315;28;20987;-60
2023/07/18 07:32:44;;;;;;;;;;;;;;;20.21;45.37;98442.66;5018992;28;19929;-59
2023/07/18 07:35:34;;;;;;;;;;;;;;;20.34;45.40;98438.56;5025785;28;19935;-59
2023/07/18 07:38:22;;;;;;;;;;;;;;;20.36;45.85;98430.75;5019222;28;19925;-61
2023/07/18 07:41:10;;;;;;;;;;;;;;;20.38;45.90;98438.66;5024584;28;19955;-60
2023/07/18 07:43:58;;;;;;;;;;;;;;;20.54;45.52;98427.56;5024923;28;20038;-60
2023/07/18 07:46:47;;;;;;;;;;;;;;;20.65;45.66;98426.59;5023156;28;20636;-62
2023/07/18 07:49:35;;;;;;;;;;;;;;;20.73;45.51;98424.78;5024550;28;19925;-62
2023/07/18 07:52:28;;;;;;;;;;;;;;;20.78;45.79;98424.50;5026466;28;19925;-64
2023/07/18 07:55:20;;;;;;;;;;;;;;;20.73;45.25;98419.25;5037765;28;19926;-62
2023/07/18 07:58:13;;;;;;;;;;;;;;;20.91;45.25;98417.63;5032990;28;19927;-66
2023/07/18 08:01:03;;;;;;;;;;;;;;;20.98;45.27;98418.91;5034095;28;19964;-61
2023/07/18 08:03:53;;;;;;;;;;;;;;;21.11;45.21;98414.81;5027190;28;19925;-62
2023/07/18 08:06:43;;;;;;;;;;;;;;;21.04;43.69;98409.13;5026279;28;20076;-62
2023/07/18 08:09:32;;;;;;;;;;;;;;;21.06;43.96;98395.78;5025677;28;19929;-62
2023/07/18 08:12:21;;;;;;;;;;;;;;;21.15;43.74;98396.34;5025215;28;19929;-60
2023/07/18 08:15:09;;;;;;;;;;;;;;;21.28;43.77;98391.41;5024754;28;19933;-62
2023/07/18 08:17:58;;;;;;;;;;;;;;;21.36;42.83;98385.66;5019869;28;19982;-60
2023/07/18 08:20:46;;;;;;;;;;;;;;;21.45;42.54;98391.69;5017267;28;19933;-62
2023/07/18 08:23:35;;;;;;;;;;;;;;;21.62;43.07;98389.56;5020473;28;20404;-62
2023/07/18 08:26:24;;;;;;;;;;;;;;;21.65;42.49;98386.06;5024368;28;19929;-60
2023/07/18 08:29:13;;;;;;;;;;;;;;;21.76;42.27;98386.22;4966279;28;1924703;-60
2023/07/18 08:32:01;;;;;;;;;;;;;;;21.74;41.22;98381.06;5022526;28;19929;-62
2023/07/18 08:34:50;;;;;;;;;;;;;;;21.66;42.56;98385.69;5025060;28;19932;-62
2023/07/18 08:37:39;;;;;;;;;;;;;;;21.80;41.64;98385.09;5021255;28;19936;-69
2023/07/18 08:40:27;;;;;;;;;;;;;;;21.97;41.74;98375.44;5023600;28;19925;-60
2023/07/18 08:43:19;;;;;;;;;;;;;;;21.83;40.74;98378.81;5016782;28;19925;-62
2023/07/18 08:46:08;;;;;;;;;;;;;;;21.95;40.46;98367.53;5022417;28;19937;-63
2023/07/18 08:48:56;;;;;;;;;;;;;;;22.06;41.37;98373.19;5026949;28;19948;-59
2023/07/18 08:51:45;;;;;;;;;;;;;;;22.15;41.32;98370.94;5022696;28;19980;-62
2023/07/18 08:54:34;;;;;;;;;;;;;;;22.14;40.01;98369.38;5023112;28;19925;-61
2023/07/18 08:57:22;;;;;;;;;;;;;;;22.25;40.35;98369.50;5026828;28;20186;-64
2023/07/18 09:00:14;;;;;;;;;;;;;;;22.28;40.58;98356.88;5021477;28;19925;-59
2023/07/18 09:03:03;;;;;;;;;;;;;;;22.29;39.64;98355.69;5022407;28;19996;-62
2023/07/18 09:05:51;;;;;;;;;;;;;;;22.29;39.59;98345.41;5022643;28;19932;-60
2023/07/18 09:08:42;;;;;;;;;;;;;;;22.39;40.57;98346.72;5022337;28;20349;-65
2023/07/18 09:11:30;;;;;;;;;;;;;;;22.45;38.62;98348.75;5038893;28;19929;-63
2023/07/18 09:14:22;;;;;;;;;;;;;;;22.52;39.58;98342.50;5024097;28;20015;-61
2023/07/18 09:17:12;;;;;;;;;;;;;;;22.57;39.21;98331.06;5019528;28;20338;-60
2023/07/18 09:20:07;;;;;;;;;;;;;;;22.62;37.49;98321.63;5019399;28;20303;-63
2023/07/18 09:22:56;;;;;;;;;;;;;;;22.73;38.07;98328.06;5019071;28;21626;-62
2023/07/18 09:25:44;;;;;;;;;;;;;;;22.75;36.69;98323.75;5022192;28;19936;-60
2023/07/18 09:28:33;;;;;;;;;;;;;;;22.76;38.66;98316.22;5022553;28;19933;-62
2023/07/18 09:31:22;;;;;;;;;;;;;;;22.77;38.54;98312.28;5021710;28;19937;-60
2023/07/18 09:34:12;;;;;;;;;;;;;;;22.75;36.68;98306.34;5021959;28;19925;-60
2023/07/18 09:37:03;;;;;;;;;;;;;;;22.85;36.25;98308.41;5018301;28;19933;-60
2023/07/18 09:39:51;;;;;;;;;;;;;;;22.87;37.28;98303.25;5022035;28;20404;-59
2023/07/18 09:42:40;;;;;;;;;;;;;;;22.85;37.49;98294.56;5022277;28;19930;-62
2023/07/18 09:45:32;;;;;;;;;;;;;;;22.93;37.38;98285.13;5021941;28;19933;-62
2023/07/18 09:48:21;;;;;;;;;;;;;;;23.02;38.74;98279.28;5019739;28;19933;-61
2023/07/18 09:51:11;;;;;;;;;;;;;;;23.03;38.19;98275.31;5036995;28;19925;-61
2023/07/18 09:53:59;;;;;;;;;;;;;;;23.08;37.93;98279.72;5019088;28;19936;-62
2023/07/18 09:56:49;;;;;;;;;;;;;;;23.11;36.99;98276.94;5019060;28;19925;-60
2023/07/18 09:59:38;;;;;;;;;;;;;;;23.14;37.97;98269.84;5019644;28;19929;-62
2023/07/18 10:02:26;;;;;;;;;;;;;;;23.16;36.54;98265.50;5018990;28;20472;-62
2023/07/18 10:05:15;;;;;;;;;;;;;;;23.30;36.38;98264.81;5025068;28;19925;-62
2023/07/18 10:08:06;;;;;;;;;;;;;;;23.41;35.67;98270.41;5022122;28;19933;-60
2023/07/18 10:11:02;;;;;;;;;;;;;;;23.44;36.62;98253.78;5023266;28;19925;-62
2023/07/18 10:14:06;;;;;;;;;;;;;;;23.53;36.34;98253.44;5018193;28;19925;-62
2023/07/18 10:16:54;;;;;;;;;;;;;;;23.50;37.10;98246.69;5023105;28;19929;-64
2023/07/18 10:19:46;;;;;;;;;;;;;;;23.54;36.39;98246.69;5017944;28;20538;-60
2023/07/18 10:22:34;;;;;;;;;;;;;;;23.62;35.24;98241.97;5023355;28;20091;-60
2023/07/18 10:25:25;;;;;;;;;;;;;;;23.59;35.37;98246.31;5023697;28;20369;-62
2023/07/18 10:28:14;;;;;;;;;;;;;;;23.61;35.47;98251.50;5014754;28;19930;-60
2023/07/18 10:31:04;;;;;;;;;;;;;;;23.67;35.80;98255.50;5009412;28;19936;-64
2023/07/18 10:34:05;;;;;;;;;;;;;;;23.68;35.60;98251.53;5027053;28;20079;-63
2023/07/18 10:36:54;;;;;;;;;;;;;;;23.72;35.31;98264.25;5012210;28;19929;-64
2023/07/18 10:39:43;;;;;;;;;;;;;;;23.68;35.93;98257.88;5025425;28;19960;-61
2023/07/18 10:42:34;;;;;;;;;;;;;;;23.62;35.11;98247.53;5017717;28;20011;-62
2023/07/18 10:45:23;;;;;;;;;;;;;;;23.75;34.73;98229.38;5017215;28;19932;-63
2023/07/18 10:48:12;;;;;;;;;;;;;;;23.82;34.73;98236.94;5019902;28;20022;-63
2023/07/18 10:51:00;;;;;;;;;;;;;;;23.84;34.85;98235.34;5024357;28;20393;-61
2023/07/18 10:53:52;;;;;;;;;;;;;;;23.78;37.12;98234.94;5020899;28;19941;-61
2023/07/18 10:56:40;;;;;;;;;;;;;;;23.84;37.21;98243.69;5013913;28;19940;-62
2023/07/18 10:59:30;;;;;;;;;;;;;;;23.93;40.47;98229.44;5020189;28;19929;-63
2023/07/18 11:02:19;;;;;;;;;;;;;;;24.05;41.84;98232.63;5020000;28;20020;-62
2023/07/18 11:05:10;;;;;;;;;;;;;;;23.98;36.63;98223.50;5023827;28;19947;-61
2023/07/18 11:07:59;;;;;;;;;;;;;;;24.03;36.82;98223.13;5019896;28;19929;-60
2023/07/18 11:10:47;;;;;;;;;;;;;;;24.03;38.82;98229.47;5025468;28;20062;-60
2023/07/18 11:13:36;;;;;;;;;;;;;;;24.11;35.63;98223.94;5022203;28;19925;-63
2023/07/18 11:16:26;;;;;;;;;;;;;;;24.25;40.06;98232.28;5021126;28;19929;-61
2023/07/18 11:19:15;;;;;;;;;;;;;;;24.23;37.42;98220.75;5021917;28;19932;-61
2023/07/18 11:22:04;;;;;;;;;;;;;;;24.23;37.98;98212.44;5019965;28;19925;-65
2023/07/18 11:24:52;;;;;;;;;;;;;;;24.31;36.23;98205.72;5014110;28;20436;-62
2023/07/18 11:27:41;;;;;;;;;;;;;;;24.27;41.49;98199.38;5023722;28;19929;-61
2023/07/18 11:30:29;;;;;;;;;;;;;;;24.47;35.71;98191.47;5021564;28;19933;-64
2023/07/18 11:33:19;;;;;;;;;;;;;;;24.46;35.17;98178.78;5014567;28;19932;-61
2023/07/18 11:36:08;;;;;;;;;;;;;;;24.83;35.43;98162.47;5026218;28;20554;-63
2023/07/18 11:38:58;;;;;;;;;;;;;;;24.69;36.80;98151.38;5024617;28;20279;-61
2023/07/18 11:41:48;;;;;;;;;;;;;;;24.99;35.80;98144.56;5026693;28;19936;-64
2023/07/18 11:44:43;;;;;;;;;;;;;;;24.76;37.87;98164.44;5026072;28;19925;-64
2023/07/18 11:47:32;;;;;;;;;;;;;;;24.64;36.36;98174.00;5016162;28;19925;-63
2023/07/18 11:50:22;;;;;;;;;;;;;;;24.59;36.28;98154.16;5025311;28;19925;-66
2023/07/18 11:53:12;;;;;;;;;;;;;;;24.66;35.58;98093.84;5023819;28;19971;-65
2023/07/18 11:56:00;;;;;;;;;;;;;;;24.90;35.96;98074.72;5024751;28;20229;-62
2023/07/18 11:58:48;;;;;;;;;;;;;;;25.08;36.10;98059.56;5018971;28;19929;-62
2023/07/18 12:01:36;;;;;;;;;;;;;;;25.02;34.33;98061.16;5020128;28;19968;-63
2023/07/18 12:04:26;;;;;;;;;;;;;;;24.89;34.67;98056.47;5021954;28;19960;-65
2023/07/18 12:07:15;;;;;;;;;;;;;;;25.06;33.91;98067.53;5013959;28;19928;-65
2023/07/18 12:10:06;;;;;;;;;;;;;;;24.93;33.71;98073.91;5036066;28;19932;-68
2023/07/18 12:12:55;;;;;;;;;;;;;;;24.92;34.55;98087.00;5024132;28;19933;-63
2023/07/18 12:15:43;;;;;;;;;;;;;;;24.81;34.05;98117.59;5026168;28;19932;-64
2023/07/18 12:18:31;;;;;;;;;;;;;;;24.76;36.81;98153.34;5030167;28;19936;-66
2023/07/18 12:21:20;;;;;;;;;;;;;;;24.72;37.41;98169.25;5025361;28;20650;-66
2023/07/18 12:24:10;;;;;;;;;;;;;;;24.66;37.96;98179.16;5028014;28;20465;-63
2023/07/18 12:26:58;;;;;;;;;;;;;;;24.58;35.21;98192.25;5024443;28;19932;-63
2023/07/18 12:29:46;;;;;;;;;;;;;;;24.64;34.59;98195.44;5025552;28;20438;-64
2023/07/18 12:32:35;;;;;;;;;;;;;;;24.64;36.71;98192.66;5028293;28;19971;-63
2023/07/18 12:35:23;;;;;;;;;;;;;;;24.63;37.62;98197.41;5027179;28;20517;-63
2023/07/18 12:38:12;;;;;;;;;;;;;;;24.54;37.97;98192.25;5019751;28;19933;-63
2023/07/18 12:41:02;;;;;;;;;;;;;;;24.61;37.60;98174.00;5027492;28;20020;-65
2023/07/18 12:43:51;;;;;;;;;;;;;;;24.74;36.55;98172.41;5025404;28;19926;-63
2023/07/18 12:46:39;;;;;;;;;;;;;;;24.78;35.63;98159.31;5015827;28;19933;-67
2023/07/18 12:49:27;;;;;;;;;;;;;;;24.69;37.28;98147.81;5018612;28;20075;-67
2023/07/18 12:52:19;;;;;;;;;;;;;;;24.70;37.21;98149.38;5020323;28;20401;-64
2023/07/18 12:55:07;;;;;;;;;;;;;;;24.65;37.70;98144.22;5022618;28;19958;-63
2023/07/18 12:58:03;;;;;;;;;;;;;;;24.63;36.81;98130.75;5025357;28;19929;-64
2023/07/18 13:00:51;;;;;;;;;;;;;;;24.65;37.08;98120.03;5013885;28;20413;-66
2023/07/18 13:03:39;;;;;;;;;;;;;;;24.74;36.19;98111.28;5015381;28;19953;-65
2023/07/18 13:06:28;;;;;;;;;;;;;;;24.76;36.48;98114.44;5018989;28;19933;-65
2023/07/18 13:09:16;;;;;;;;;;;;;;;24.76;35.43;98106.09;5027417;28;20397;-62
2023/07/18 13:12:04;;;;;;;;;;;;;;;24.76;36.08;98093.00;5022800;28;19925;-63
2023/07/18 13:14:54;;;;;;;;;;;;;;;24.80;33.73;98074.34;5020552;28;19925;-63
2023/07/18 13:17:43;;;;;;;;;;;;;;;24.85;36.92;98050.91;5032120;28;19943;-61
2023/07/18 13:20:31;;;;;;;;;;;;;;;24.77;37.19;98049.38;5018877;28;19925;-63
2023/07/18 13:23:19;;;;;;;;;;;;;;;24.83;35.91;98042.19;5021249;28;19944;-65
2023/07/18 13:26:09;;;;;;;;;;;;;;;24.89;37.57;98039.78;5029265;28;19925;-64
2023/07/18 13:28:57;;;;;;;;;;;;;;;24.95;36.94;98035.38;5024513;28;20405;-62
2023/07/18 13:31:46;;;;;;;;;;;;;;;24.97;33.71;98019.88;5020072;28;19929;-62
2023/07/18 13:34:36;;;;;;;;;;;;;;;25.00;36.65;98016.31;5020468;28;19925;-65
2023/07/18 13:37:24;;;;;;;;;;;;;;;25.00;36.30;98012.75;5033381;28;19980;-62
2023/07/18 13:40:14;;;;;;;;;;;;;;;25.03;34.81;97998.00;5019428;28;19933;-63
2023/07/18 13:43:02;;;;;;;;;;;;;;;25.04;34.73;98003.19;5025815;28;20495;-68
2023/07/18 13:45:51;;;;;;;;;;;;;;;25.05;35.02;97987.31;5020466;28;19953;-65
2023/07/18 13:48:43;;;;;;;;;;;;;;;25.00;35.18;97990.50;5023576;28;19936;-68
2023/07/18 13:51:33;;;;;;;;;;;;;;;25.05;35.62;97981.75;5020076;28;20437;-64
2023/07/18 13:54:21;;;;;;;;;;;;;;;25.02;36.09;97980.53;5017355;28;20027;-63
2023/07/18 13:57:09;;;;;;;;;;;;;;;25.12;35.42;97976.16;5021954;28;19936;-65
2023/07/18 13:59:58;;;;;;;;;;;;;;;25.13;36.13;97958.28;5021999;28;19929;-64
2023/07/18 14:02:46;;;;;;;;;;;;;;;25.10;36.21;97956.31;5024145;28;19925;-64
2023/07/18 14:05:36;;;;;;;;;;;;;;;25.16;35.15;97942.78;5019584;28;20024;-61
2023/07/18 14:08:26;;;;;;;;;;;;;;;25.21;36.17;97934.81;5027319;28;20420;-63
2023/07/18 14:11:16;;;;;;;;;;;;;;;25.22;36.43;97938.38;5025647;28;20297;-62
2023/07/18 14:14:04;;;;;;;;;;;;;;;25.14;36.06;97928.47;5020468;28;19925;-64
2023/07/18 14:16:52;;;;;;;;;;;;;;;25.23;34.35;97920.47;5015889;28;20546;-67
2023/07/18 14:19:40;;;;;;;;;;;;;;;25.22;34.84;97922.47;5016061;28;20312;-65
2023/07/18 14:22:30;;;;;;;;;;;;;;;25.28;34.51;97922.81;5019212;28;19936;-62
2023/07/18 14:25:18;;;;;;;;;;;;;;;25.30;35.04;97928.75;5024088;28;19998;-63
2023/07/18 14:28:07;;;;;;;;;;;;;;;25.28;35.42;97923.63;5020446;28;21410;-65
2023/07/18 14:30:55;;;;;;;;;;;;;;;25.28;34.58;97925.63;5020762;28;19956;-65
2023/07/18 14:33:43;;;;;;;;;;;;;;;25.32;34.85;97918.03;5018618;28;19986;-66
2023/07/18 14:36:46;;;;;;;;;;;;;;;25.37;36.02;97922.38;5018634;28;20082;-63
2023/07/18 14:39:37;;;;;;;;;;;;;;;25.47;35.48;97921.50;5015123;28;19933;-63
2023/07/18 14:42:25;;;;;;;;;;;;;;;25.53;33.49;97923.44;5017556;28;19925;-64